sensor_id;sensor_type;location;lat;lon;timestamp;P1;durP1;ratioP1;P2;durP2;ratioP2
64487;SDS011;50864;45.050;39.014;2023-07-02T00:02:07;10.95;;;4.22;;
64487;SDS011;50864;45.050;39.014;2023-07-02T00:04:33;8.25;;;4.20;;
64487;SDS011;50864;45.050;39.014;2023-07-02T00:06:59;10.52;;;3.65;;
64487;SDS011;50864;45.050;39.014;2023-07-02T00:09:25;6.82;;;4.25;;
64487;SDS011;50864;45.050;39.014;2023-07-02T00:11:51;6.90;;;3.58;;
64487;SDS011;50864;45.050;39.014;2023-07-02T00:14:17;7.57;;;4.10;;
64487;SDS011;50864;45.050;39.014;2023-07-02T00:16:44;11.18;;;3.92;;
64487;SDS011;50864;45.050;39.014;2023-07-02T00:19:11;6.90;;;4.00;;
64487;SDS011;50864;45.050;39.014;2023-07-02T00:21:37;8.30;;;4.12;;
64487;SDS011;50864;45.050;39.014;2023-07-02T00:24:04;7.80;;;3.80;;
64487;SDS011;50864;45.050;39.014;2023-07-02T00:26:30;7.07;;;4.05;;
64487;SDS011;50864;45.050;39.014;2023-07-02T00:28:56;10.45;;;3.92;;
64487;SDS011;50864;45.050;39.014;2023-07-02T00:31:22;6.30;;;3.95;;
64487;SDS011;50864;45.050;39.014;2023-07-02T00:33:48;6.70;;;4.10;;
64487;SDS011;50864;45.050;39.014;2023-07-02T00:36:14;10.88;;;4.30;;
64487;SDS011;50864;45.050;39.014;2023-07-02T00:38:41;7.43;;;4.25;;
64487;SDS011;50864;45.050;39.014;2023-07-02T00:41:08;10.65;;;4.18;;
64487;SDS011;50864;45.050;39.014;2023-07-02T00:43:33;7.53;;;4.43;;
64487;SDS011;50864;45.050;39.014;2023-07-02T00:45:59;7.15;;;3.92;;
64487;SDS011;50864;45.050;39.014;2023-07-02T00:48:25;6.68;;;4.30;;
64487;SDS011;50864;45.050;39.014;2023-07-02T00:50:51;8.10;;;3.85;;
64487;SDS011;50864;45.050;39.014;2023-07-02T00:53:17;7.70;;;4.07;;
64487;SDS011;50864;45.050;39.014;2023-07-02T00:55:43;6.15;;;4.20;;
64487;SDS011;50864;45.050;39.014;2023-07-02T00:58:09;8.80;;;4.47;;
64487;SDS011;50864;45.050;39.014;2023-07-02T01:00:35;8.05;;;3.78;;
64487;SDS011;50864;45.050;39.014;2023-07-02T01:03:01;7.00;;;4.00;;
64487;SDS011;50864;45.050;39.014;2023-07-02T01:05:28;6.53;;;3.80;;
64487;SDS011;50864;45.050;39.014;2023-07-02T01:08:02;8.70;;;4.07;;
64487;SDS011;50864;45.050;39.014;2023-07-02T01:10:27;9.30;;;3.70;;
64487;SDS011;50864;45.050;39.014;2023-07-02T01:12:53;7.12;;;3.92;;
64487;SDS011;50864;45.050;39.014;2023-07-02T01:15:20;9.15;;;3.85;;
64487;SDS011;50864;45.050;39.014;2023-07-02T01:17:47;6.00;;;4.00;;
64487;SDS011;50864;45.050;39.014;2023-07-02T01:20:13;10.40;;;4.15;;
64487;SDS011;50864;45.050;39.014;2023-07-02T01:22:40;6.72;;;3.75;;
64487;SDS011;50864;45.050;39.014;2023-07-02T01:25:06;9.63;;;3.95;;
64487;SDS011;50864;45.050;39.014;2023-07-02T01:27:35;7.97;;;3.90;;
64487;SDS011;50864;45.050;39.014;2023-07-02T01:30:01;8.75;;;3.62;;
64487;SDS011;50864;45.050;39.014;2023-07-02T01:32:28;8.95;;;3.72;;
64487;SDS011;50864;45.050;39.014;2023-07-02T01:34:53;7.57;;;3.60;;
64487;SDS011;50864;45.050;39.014;2023-07-02T01:37:20;8.27;;;3.92;;
64487;SDS011;50864;45.050;39.014;2023-07-02T01:39:45;10.18;;;4.32;;
64487;SDS011;50864;45.050;39.014;2023-07-02T01:42:12;9.82;;;4.03;;
64487;SDS011;50864;45.050;39.014;2023-07-02T01:44:40;10.10;;;4.68;;
64487;SDS011;50864;45.050;39.014;2023-07-02T01:47:06;9.02;;;3.75;;
64487;SDS011;50864;45.050;39.014;2023-07-02T01:49:31;7.28;;;3.72;;
64487;SDS011;50864;45.050;39.014;2023-07-02T01:51:58;9.05;;;4.10;;
64487;SDS011;50864;45.050;39.014;2023-07-02T01:54:25;9.35;;;4.10;;
64487;SDS011;50864;45.050;39.014;2023-07-02T01:56:52;8.52;;;4.07;;
64487;SDS011;50864;45.050;39.014;2023-07-02T01:59:18;10.65;;;4.70;;
64487;SDS011;50864;45.050;39.014;2023-07-02T02:01:44;8.30;;;4.28;;
64487;SDS011;50864;45.050;39.014;2023-07-02T02:04:10;8.98;;;3.92;;
64487;SDS011;50864;45.050;39.014;2023-07-02T02:06:37;7.47;;;4.00;;
64487;SDS011;50864;45.050;39.014;2023-07-02T02:09:03;9.10;;;3.87;;
64487;SDS011;50864;45.050;39.014;2023-07-02T02:11:30;6.62;;;3.83;;
64487;SDS011;50864;45.050;39.014;2023-07-02T02:13:56;7.85;;;4.15;;
64487;SDS011;50864;45.050;39.014;2023-07-02T02:16:22;6.43;;;3.60;;
64487;SDS011;50864;45.050;39.014;2023-07-02T02:18:48;8.93;;;4.20;;
64487;SDS011;50864;45.050;39.014;2023-07-02T02:21:17;8.25;;;3.62;;
64487;SDS011;50864;45.050;39.014;2023-07-02T02:23:43;7.15;;;3.85;;
64487;SDS011;50864;45.050;39.014;2023-07-02T02:26:09;8.50;;;3.97;;
64487;SDS011;50864;45.050;39.014;2023-07-02T02:28:35;6.32;;;3.60;;
64487;SDS011;50864;45.050;39.014;2023-07-02T02:31:01;7.35;;;3.10;;
64487;SDS011;50864;45.050;39.014;2023-07-02T02:33:26;6.53;;;3.78;;
64487;SDS011;50864;45.050;39.014;2023-07-02T02:35:52;6.43;;;3.50;;
64487;SDS011;50864;45.050;39.014;2023-07-02T02:38:19;8.60;;;3.58;;
64487;SDS011;50864;45.050;39.014;2023-07-02T02:40:45;7.32;;;3.70;;
64487;SDS011;50864;45.050;39.014;2023-07-02T02:43:12;9.50;;;4.07;;
64487;SDS011;50864;45.050;39.014;2023-07-02T02:45:38;7.90;;;3.53;;
64487;SDS011;50864;45.050;39.014;2023-07-02T02:48:04;5.45;;;3.40;;
64487;SDS011;50864;45.050;39.014;2023-07-02T02:50:30;7.40;;;3.75;;
64487;SDS011;50864;45.050;39.014;2023-07-02T02:52:56;7.43;;;3.50;;
64487;SDS011;50864;45.050;39.014;2023-07-02T02:55:22;6.95;;;3.40;;
64487;SDS011;50864;45.050;39.014;2023-07-02T02:57:47;8.05;;;3.50;;
64487;SDS011;50864;45.050;39.014;2023-07-02T03:00:14;5.53;;;3.35;;
64487;SDS011;50864;45.050;39.014;2023-07-02T03:02:39;7.12;;;3.35;;
64487;SDS011;50864;45.050;39.014;2023-07-02T03:05:05;7.28;;;3.25;;
64487;SDS011;50864;45.050;39.014;2023-07-02T03:07:32;8.13;;;3.20;;
64487;SDS011;50864;45.050;39.014;2023-07-02T03:09:58;11.35;;;3.30;;
64487;SDS011;50864;45.050;39.014;2023-07-02T03:12:25;7.90;;;3.05;;
64487;SDS011;50864;45.050;39.014;2023-07-02T03:14:51;9.98;;;2.97;;
64487;SDS011;50864;45.050;39.014;2023-07-02T03:17:20;5.30;;;2.87;;
64487;SDS011;50864;45.050;39.014;2023-07-02T03:19:46;7.18;;;3.08;;
64487;SDS011;50864;45.050;39.014;2023-07-02T03:22:12;8.20;;;3.00;;
64487;SDS011;50864;45.050;39.014;2023-07-02T03:24:38;8.32;;;3.08;;
64487;SDS011;50864;45.050;39.014;2023-07-02T03:27:03;7.80;;;3.35;;
64487;SDS011;50864;45.050;39.014;2023-07-02T03:29:29;6.22;;;2.70;;
64487;SDS011;50864;45.050;39.014;2023-07-02T03:31:55;8.05;;;2.72;;
64487;SDS011;50864;45.050;39.014;2023-07-02T03:34:21;9.32;;;2.97;;
64487;SDS011;50864;45.050;39.014;2023-07-02T03:36:49;6.22;;;2.92;;
64487;SDS011;50864;45.050;39.014;2023-07-02T03:39:15;9.88;;;2.85;;
64487;SDS011;50864;45.050;39.014;2023-07-02T03:41:41;8.10;;;2.85;;
64487;SDS011;50864;45.050;39.014;2023-07-02T03:44:07;9.25;;;2.67;;
64487;SDS011;50864;45.050;39.014;2023-07-02T03:46:33;7.78;;;3.08;;
64487;SDS011;50864;45.050;39.014;2023-07-02T03:48:59;7.55;;;2.90;;
64487;SDS011;50864;45.050;39.014;2023-07-02T03:51:25;6.25;;;3.05;;
64487;SDS011;50864;45.050;39.014;2023-07-02T03:53:51;7.55;;;3.33;;
64487;SDS011;50864;45.050;39.014;2023-07-02T03:56:16;7.65;;;2.90;;
64487;SDS011;50864;45.050;39.014;2023-07-02T03:58:42;9.77;;;2.97;;
64487;SDS011;50864;45.050;39.014;2023-07-02T04:01:08;9.50;;;2.97;;
64487;SDS011;50864;45.050;39.014;2023-07-02T04:03:34;8.23;;;2.50;;
64487;SDS011;50864;45.050;39.014;2023-07-02T04:06:00;5.53;;;2.55;;
64487;SDS011;50864;45.050;39.014;2023-07-02T04:08:26;11.63;;;2.80;;
64487;SDS011;50864;45.050;39.014;2023-07-02T04:10:54;11.32;;;2.70;;
64487;SDS011;50864;45.050;39.014;2023-07-02T04:13:20;7.82;;;2.72;;
64487;SDS011;50864;45.050;39.014;2023-07-02T04:15:45;4.82;;;2.40;;
64487;SDS011;50864;45.050;39.014;2023-07-02T04:18:11;7.60;;;2.87;;
64487;SDS011;50864;45.050;39.014;2023-07-02T04:20:38;7.22;;;2.60;;
64487;SDS011;50864;45.050;39.014;2023-07-02T04:23:05;7.30;;;3.28;;
64487;SDS011;50864;45.050;39.014;2023-07-02T04:25:31;5.70;;;2.80;;
64487;SDS011;50864;45.050;39.014;2023-07-02T04:27:56;8.07;;;2.75;;
64487;SDS011;50864;45.050;39.014;2023-07-02T04:30:24;5.65;;;2.55;;
64487;SDS011;50864;45.050;39.014;2023-07-02T04:32:53;5.30;;;2.40;;
64487;SDS011;50864;45.050;39.014;2023-07-02T04:35:19;5.30;;;2.53;;
64487;SDS011;50864;45.050;39.014;2023-07-02T04:37:44;4.50;;;2.42;;
64487;SDS011;50864;45.050;39.014;2023-07-02T04:40:11;6.70;;;3.30;;
64487;SDS011;50864;45.050;39.014;2023-07-02T04:42:37;6.60;;;2.67;;
64487;SDS011;50864;45.050;39.014;2023-07-02T04:45:04;3.40;;;2.30;;
64487;SDS011;50864;45.050;39.014;2023-07-02T04:47:30;9.60;;;2.53;;
64487;SDS011;50864;45.050;39.014;2023-07-02T04:49:56;5.12;;;2.60;;
64487;SDS011;50864;45.050;39.014;2023-07-02T04:52:21;7.82;;;2.60;;
64487;SDS011;50864;45.050;39.014;2023-07-02T04:54:48;7.22;;;2.50;;
64487;SDS011;50864;45.050;39.014;2023-07-02T04:57:13;5.10;;;2.85;;
64487;SDS011;50864;45.050;39.014;2023-07-02T04:59:41;6.12;;;2.33;;
64487;SDS011;50864;45.050;39.014;2023-07-02T05:02:07;5.70;;;2.65;;
64487;SDS011;50864;45.050;39.014;2023-07-02T05:04:32;7.35;;;2.67;;
64487;SDS011;50864;45.050;39.014;2023-07-02T05:06:59;8.07;;;2.83;;
64487;SDS011;50864;45.050;39.014;2023-07-02T05:09:25;6.35;;;3.35;;
64487;SDS011;50864;45.050;39.014;2023-07-02T05:11:51;6.22;;;3.55;;
64487;SDS011;50864;45.050;39.014;2023-07-02T05:14:17;5.82;;;2.70;;
64487;SDS011;50864;45.050;39.014;2023-07-02T05:16:43;4.57;;;2.28;;
64487;SDS011;50864;45.050;39.014;2023-07-02T05:19:09;6.37;;;2.80;;
64487;SDS011;50864;45.050;39.014;2023-07-02T05:21:34;7.95;;;2.80;;
64487;SDS011;50864;45.050;39.014;2023-07-02T05:24:00;13.57;;;4.15;;
64487;SDS011;50864;45.050;39.014;2023-07-02T05:26:26;6.05;;;2.70;;
64487;SDS011;50864;45.050;39.014;2023-07-02T05:28:52;5.15;;;2.70;;
64487;SDS011;50864;45.050;39.014;2023-07-02T05:31:19;5.62;;;2.60;;
64487;SDS011;50864;45.050;39.014;2023-07-02T05:33:44;4.78;;;2.65;;
64487;SDS011;50864;45.050;39.014;2023-07-02T05:36:10;9.27;;;2.80;;
64487;SDS011;50864;45.050;39.014;2023-07-02T05:38:36;5.12;;;2.45;;
64487;SDS011;50864;45.050;39.014;2023-07-02T05:41:02;7.62;;;2.83;;
64487;SDS011;50864;45.050;39.014;2023-07-02T05:43:28;5.70;;;2.60;;
64487;SDS011;50864;45.050;39.014;2023-07-02T05:45:54;6.90;;;2.60;;
64487;SDS011;50864;45.050;39.014;2023-07-02T05:48:19;5.85;;;2.70;;
64487;SDS011;50864;45.050;39.014;2023-07-02T05:50:45;5.62;;;2.60;;
64487;SDS011;50864;45.050;39.014;2023-07-02T05:53:11;12.65;;;3.60;;
64487;SDS011;50864;45.050;39.014;2023-07-02T05:55:37;8.48;;;2.62;;
64487;SDS011;50864;45.050;39.014;2023-07-02T05:58:03;7.25;;;2.67;;
64487;SDS011;50864;45.050;39.014;2023-07-02T06:00:29;10.65;;;3.15;;
64487;SDS011;50864;45.050;39.014;2023-07-02T06:02:55;7.47;;;2.85;;
64487;SDS011;50864;45.050;39.014;2023-07-02T06:05:20;7.68;;;3.03;;
64487;SDS011;50864;45.050;39.014;2023-07-02T06:07:46;5.43;;;2.90;;
64487;SDS011;50864;45.050;39.014;2023-07-02T06:10:12;7.07;;;2.80;;
64487;SDS011;50864;45.050;39.014;2023-07-02T06:12:38;3.55;;;2.10;;
64487;SDS011;50864;45.050;39.014;2023-07-02T06:15:04;6.90;;;2.72;;
64487;SDS011;50864;45.050;39.014;2023-07-02T06:17:30;5.57;;;2.40;;
64487;SDS011;50864;45.050;39.014;2023-07-02T06:19:56;5.20;;;2.72;;
64487;SDS011;50864;45.050;39.014;2023-07-02T06:22:22;5.12;;;2.80;;
64487;SDS011;50864;45.050;39.014;2023-07-02T06:24:48;7.37;;;2.70;;
64487;SDS011;50864;45.050;39.014;2023-07-02T06:27:14;4.85;;;2.60;;
64487;SDS011;50864;45.050;39.014;2023-07-02T06:29:40;6.82;;;2.40;;
64487;SDS011;50864;45.050;39.014;2023-07-02T06:32:06;5.03;;;2.50;;
64487;SDS011;50864;45.050;39.014;2023-07-02T06:34:32;7.50;;;2.50;;
64487;SDS011;50864;45.050;39.014;2023-07-02T06:36:57;5.47;;;2.50;;
64487;SDS011;50864;45.050;39.014;2023-07-02T06:39:23;6.30;;;2.70;;
64487;SDS011;50864;45.050;39.014;2023-07-02T06:41:49;5.05;;;2.40;;
64487;SDS011;50864;45.050;39.014;2023-07-02T06:44:16;4.95;;;2.30;;
64487;SDS011;50864;45.050;39.014;2023-07-02T06:46:45;30.45;;;4.20;;
64487;SDS011;50864;45.050;39.014;2023-07-02T06:49:10;6.87;;;2.75;;
64487;SDS011;50864;45.050;39.014;2023-07-02T06:51:36;4.80;;;2.25;;
64487;SDS011;50864;45.050;39.014;2023-07-02T06:54:02;4.93;;;2.30;;
64487;SDS011;50864;45.050;39.014;2023-07-02T06:56:28;5.30;;;2.40;;
64487;SDS011;50864;45.050;39.014;2023-07-02T06:58:53;3.67;;;2.40;;
64487;SDS011;50864;45.050;39.014;2023-07-02T07:01:20;5.05;;;2.28;;
64487;SDS011;50864;45.050;39.014;2023-07-02T07:03:45;8.32;;;2.60;;
64487;SDS011;50864;45.050;39.014;2023-07-02T07:06:11;5.20;;;2.92;;
64487;SDS011;50864;45.050;39.014;2023-07-02T07:08:37;5.60;;;2.75;;
64487;SDS011;50864;45.050;39.014;2023-07-02T07:11:04;4.97;;;2.55;;
64487;SDS011;50864;45.050;39.014;2023-07-02T07:13:30;6.00;;;2.78;;
64487;SDS011;50864;45.050;39.014;2023-07-02T07:15:56;5.22;;;2.65;;
64487;SDS011;50864;45.050;39.014;2023-07-02T07:18:21;6.53;;;2.50;;
64487;SDS011;50864;45.050;39.014;2023-07-02T07:20:47;5.65;;;2.80;;
64487;SDS011;50864;45.050;39.014;2023-07-02T07:23:14;9.25;;;2.50;;
64487;SDS011;50864;45.050;39.014;2023-07-02T07:25:39;6.97;;;2.55;;
64487;SDS011;50864;45.050;39.014;2023-07-02T07:28:05;4.30;;;2.37;;
64487;SDS011;50864;45.050;39.014;2023-07-02T07:30:31;4.30;;;2.50;;
64487;SDS011;50864;45.050;39.014;2023-07-02T07:32:57;5.00;;;2.60;;
64487;SDS011;50864;45.050;39.014;2023-07-02T07:35:22;5.35;;;2.30;;
64487;SDS011;50864;45.050;39.014;2023-07-02T07:37:48;7.00;;;2.45;;
64487;SDS011;50864;45.050;39.014;2023-07-02T07:40:14;8.57;;;3.12;;
64487;SDS011;50864;45.050;39.014;2023-07-02T07:42:41;4.80;;;2.47;;
64487;SDS011;50864;45.050;39.014;2023-07-02T07:45:09;5.47;;;2.97;;
64487;SDS011;50864;45.050;39.014;2023-07-02T07:47:34;5.70;;;2.50;;
64487;SDS011;50864;45.050;39.014;2023-07-02T07:50:00;3.80;;;2.60;;
64487;SDS011;50864;45.050;39.014;2023-07-02T07:52:26;11.20;;;3.08;;
64487;SDS011;50864;45.050;39.014;2023-07-02T07:54:52;5.20;;;3.00;;
64487;SDS011;50864;45.050;39.014;2023-07-02T07:57:18;6.22;;;2.85;;
64487;SDS011;50864;45.050;39.014;2023-07-02T07:59:44;6.32;;;2.60;;
64487;SDS011;50864;45.050;39.014;2023-07-02T08:02:10;4.65;;;2.67;;
64487;SDS011;50864;45.050;39.014;2023-07-02T08:04:36;8.85;;;2.80;;
64487;SDS011;50864;45.050;39.014;2023-07-02T08:07:01;5.78;;;2.83;;
64487;SDS011;50864;45.050;39.014;2023-07-02T08:09:29;4.80;;;2.60;;
64487;SDS011;50864;45.050;39.014;2023-07-02T08:11:55;4.65;;;2.72;;
64487;SDS011;50864;45.050;39.014;2023-07-02T08:14:21;5.80;;;3.05;;
64487;SDS011;50864;45.050;39.014;2023-07-02T08:16:47;6.68;;;2.70;;
64487;SDS011;50864;45.050;39.014;2023-07-02T08:19:13;7.15;;;2.70;;
64487;SDS011;50864;45.050;39.014;2023-07-02T08:21:39;6.00;;;2.62;;
64487;SDS011;50864;45.050;39.014;2023-07-02T08:24:04;4.80;;;2.87;;
64487;SDS011;50864;45.050;39.014;2023-07-02T08:26:32;5.62;;;2.90;;
64487;SDS011;50864;45.050;39.014;2023-07-02T08:28:57;5.37;;;2.72;;
64487;SDS011;50864;45.050;39.014;2023-07-02T08:31:23;7.55;;;3.50;;
64487;SDS011;50864;45.050;39.014;2023-07-02T08:33:49;5.53;;;2.87;;
64487;SDS011;50864;45.050;39.014;2023-07-02T08:36:15;5.43;;;2.53;;
64487;SDS011;50864;45.050;39.014;2023-07-02T08:38:40;4.93;;;2.90;;
64487;SDS011;50864;45.050;39.014;2023-07-02T08:41:08;5.40;;;2.85;;
64487;SDS011;50864;45.050;39.014;2023-07-02T08:43:34;5.57;;;2.83;;
64487;SDS011;50864;45.050;39.014;2023-07-02T08:46:01;4.78;;;2.85;;
64487;SDS011;50864;45.050;39.014;2023-07-02T08:48:27;5.87;;;2.83;;
64487;SDS011;50864;45.050;39.014;2023-07-02T08:50:57;4.57;;;2.70;;
64487;SDS011;50864;45.050;39.014;2023-07-02T08:53:23;5.28;;;2.78;;
64487;SDS011;50864;45.050;39.014;2023-07-02T08:55:56;8.60;;;2.90;;
64487;SDS011;50864;45.050;39.014;2023-07-02T08:58:22;5.87;;;2.83;;
64487;SDS011;50864;45.050;39.014;2023-07-02T09:01:06;5.78;;;3.17;;
64487;SDS011;50864;45.050;39.014;2023-07-02T09:03:33;8.05;;;3.78;;
64487;SDS011;50864;45.050;39.014;2023-07-02T09:05:58;6.80;;;2.95;;
64487;SDS011;50864;45.050;39.014;2023-07-02T09:08:24;8.43;;;2.67;;
64487;SDS011;50864;45.050;39.014;2023-07-02T09:10:50;4.60;;;2.97;;
64487;SDS011;50864;45.050;39.014;2023-07-02T09:13:16;6.45;;;2.80;;
64487;SDS011;50864;45.050;39.014;2023-07-02T09:15:42;7.22;;;2.95;;
64487;SDS011;50864;45.050;39.014;2023-07-02T09:20:40;8.45;;;4.12;;
64487;SDS011;50864;45.050;39.014;2023-07-02T09:23:05;7.32;;;4.10;;
64487;SDS011;50864;45.050;39.014;2023-07-02T09:25:38;5.43;;;2.90;;
64487;SDS011;50864;45.050;39.014;2023-07-02T09:28:19;6.50;;;3.03;;
64487;SDS011;50864;45.050;39.014;2023-07-02T09:30:51;6.25;;;2.85;;
64487;SDS011;50864;45.050;39.014;2023-07-02T09:33:17;6.53;;;2.90;;
64487;SDS011;50864;45.050;39.014;2023-07-02T09:35:42;4.78;;;2.42;;
64487;SDS011;50864;45.050;39.014;2023-07-02T09:38:10;4.37;;;2.53;;
64487;SDS011;50864;45.050;39.014;2023-07-02T09:40:43;4.37;;;2.55;;
64487;SDS011;50864;45.050;39.014;2023-07-02T09:45:45;7.85;;;2.72;;
64487;SDS011;50864;45.050;39.014;2023-07-02T09:48:14;5.18;;;2.70;;
64487;SDS011;50864;45.050;39.014;2023-07-02T09:50:43;4.40;;;2.55;;
64487;SDS011;50864;45.050;39.014;2023-07-02T09:53:09;6.90;;;2.60;;
64487;SDS011;50864;45.050;39.014;2023-07-02T09:55:36;6.03;;;2.72;;
64487;SDS011;50864;45.050;39.014;2023-07-02T09:58:02;8.25;;;2.80;;
64487;SDS011;50864;45.050;39.014;2023-07-02T10:00:28;5.07;;;2.72;;
64487;SDS011;50864;45.050;39.014;2023-07-02T10:02:54;7.20;;;2.50;;
64487;SDS011;50864;45.050;39.014;2023-07-02T10:05:26;6.03;;;2.47;;
64487;SDS011;50864;45.050;39.014;2023-07-02T10:07:52;5.22;;;2.70;;
64487;SDS011;50864;45.050;39.014;2023-07-02T10:12:53;7.62;;;3.40;;
64487;SDS011;50864;45.050;39.014;2023-07-02T10:15:25;6.22;;;3.00;;
64487;SDS011;50864;45.050;39.014;2023-07-02T10:17:58;8.18;;;2.80;;
64487;SDS011;50864;45.050;39.014;2023-07-02T10:20:31;6.07;;;2.80;;
64487;SDS011;50864;45.050;39.014;2023-07-02T10:22:59;6.40;;;3.22;;
64487;SDS011;50864;45.050;39.014;2023-07-02T10:25:28;4.40;;;3.03;;
64487;SDS011;50864;45.050;39.014;2023-07-02T10:27:54;4.12;;;2.70;;
64487;SDS011;50864;45.050;39.014;2023-07-02T10:30:29;5.78;;;2.70;;
64487;SDS011;50864;45.050;39.014;2023-07-02T10:33:05;4.05;;;2.53;;
64487;SDS011;50864;45.050;39.014;2023-07-02T10:35:32;7.65;;;3.03;;
64487;SDS011;50864;45.050;39.014;2023-07-02T10:37:59;5.43;;;2.70;;
64487;SDS011;50864;45.050;39.014;2023-07-02T10:40:24;6.10;;;2.50;;
64487;SDS011;50864;45.050;39.014;2023-07-02T10:42:51;9.13;;;2.92;;
64487;SDS011;50864;45.050;39.014;2023-07-02T10:45:17;4.37;;;2.65;;
64487;SDS011;50864;45.050;39.014;2023-07-02T10:47:43;4.15;;;2.70;;
64487;SDS011;50864;45.050;39.014;2023-07-02T10:50:16;4.90;;;2.90;;
64487;SDS011;50864;45.050;39.014;2023-07-02T10:55:28;4.70;;;2.97;;
64487;SDS011;50864;45.050;39.014;2023-07-02T10:58:04;7.65;;;3.35;;
64487;SDS011;50864;45.050;39.014;2023-07-02T11:00:30;5.25;;;2.70;;
64487;SDS011;50864;45.050;39.014;2023-07-02T11:02:56;6.03;;;2.70;;
64487;SDS011;50864;45.050;39.014;2023-07-02T11:05:21;5.35;;;2.90;;
64487;SDS011;50864;45.050;39.014;2023-07-02T11:07:48;4.55;;;2.72;;
64487;SDS011;50864;45.050;39.014;2023-07-02T11:10:20;6.12;;;2.78;;
64487;SDS011;50864;45.050;39.014;2023-07-02T11:12:45;5.60;;;2.90;;
64487;SDS011;50864;45.050;39.014;2023-07-02T11:15:14;4.05;;;2.70;;
64487;SDS011;50864;45.050;39.014;2023-07-02T11:17:40;4.43;;;2.47;;
64487;SDS011;50864;45.050;39.014;2023-07-02T11:20:08;5.07;;;2.92;;
64487;SDS011;50864;45.050;39.014;2023-07-02T11:22:34;7.28;;;2.80;;
64487;SDS011;50864;45.050;39.014;2023-07-02T11:25:13;6.05;;;2.80;;
64487;SDS011;50864;45.050;39.014;2023-07-02T11:27:40;5.15;;;2.75;;
64487;SDS011;50864;45.050;39.014;2023-07-02T11:30:06;4.57;;;2.80;;
64487;SDS011;50864;45.050;39.014;2023-07-02T11:32:35;6.47;;;2.65;;
64487;SDS011;50864;45.050;39.014;2023-07-02T11:35:00;3.90;;;2.70;;
64487;SDS011;50864;45.050;39.014;2023-07-02T11:37:26;4.15;;;2.70;;
64487;SDS011;50864;45.050;39.014;2023-07-02T11:39:53;4.20;;;2.90;;
64487;SDS011;50864;45.050;39.014;2023-07-02T11:42:19;5.30;;;3.10;;
64487;SDS011;50864;45.050;39.014;2023-07-02T11:44:47;5.07;;;3.10;;
64487;SDS011;50864;45.050;39.014;2023-07-02T11:47:12;5.60;;;3.00;;
64487;SDS011;50864;45.050;39.014;2023-07-02T11:49:38;6.00;;;2.80;;
64487;SDS011;50864;45.050;39.014;2023-07-02T11:52:04;6.20;;;3.00;;
64487;SDS011;50864;45.050;39.014;2023-07-02T11:54:30;5.72;;;3.15;;
64487;SDS011;50864;45.050;39.014;2023-07-02T11:56:56;5.50;;;2.78;;
64487;SDS011;50864;45.050;39.014;2023-07-02T11:59:22;9.88;;;3.12;;
64487;SDS011;50864;45.050;39.014;2023-07-02T12:01:48;5.32;;;3.20;;
64487;SDS011;50864;45.050;39.014;2023-07-02T12:04:14;5.10;;;2.80;;
64487;SDS011;50864;45.050;39.014;2023-07-02T12:06:39;6.43;;;2.95;;
64487;SDS011;50864;45.050;39.014;2023-07-02T12:09:05;4.97;;;2.87;;
64487;SDS011;50864;45.050;39.014;2023-07-02T12:11:31;7.00;;;3.10;;
64487;SDS011;50864;45.050;39.014;2023-07-02T12:13:57;4.78;;;2.80;;
64487;SDS011;50864;45.050;39.014;2023-07-02T12:16:25;6.80;;;2.62;;
64487;SDS011;50864;45.050;39.014;2023-07-02T12:18:51;11.12;;;4.40;;
64487;SDS011;50864;45.050;39.014;2023-07-02T12:21:17;5.47;;;2.80;;
64487;SDS011;50864;45.050;39.014;2023-07-02T12:23:43;7.60;;;3.00;;
64487;SDS011;50864;45.050;39.014;2023-07-02T12:26:09;7.53;;;2.87;;
64487;SDS011;50864;45.050;39.014;2023-07-02T12:28:35;6.65;;;2.83;;
64487;SDS011;50864;45.050;39.014;2023-07-02T12:31:01;4.37;;;2.60;;
64487;SDS011;50864;45.050;39.014;2023-07-02T12:33:28;4.50;;;2.42;;
64487;SDS011;50864;45.050;39.014;2023-07-02T12:35:53;3.65;;;2.60;;
64487;SDS011;50864;45.050;39.014;2023-07-02T12:38:19;6.15;;;3.10;;
64487;SDS011;50864;45.050;39.014;2023-07-02T12:40:45;3.85;;;2.60;;
64487;SDS011;50864;45.050;39.014;2023-07-02T12:43:11;6.43;;;3.00;;
64487;SDS011;50864;45.050;39.014;2023-07-02T12:45:36;7.25;;;2.92;;
64487;SDS011;50864;45.050;39.014;2023-07-02T12:48:02;5.15;;;3.12;;
64487;SDS011;50864;45.050;39.014;2023-07-02T12:50:28;4.60;;;2.65;;
64487;SDS011;50864;45.050;39.014;2023-07-02T12:52:54;5.15;;;3.00;;
64487;SDS011;50864;45.050;39.014;2023-07-02T12:55:20;6.15;;;3.05;;
64487;SDS011;50864;45.050;39.014;2023-07-02T12:57:45;8.90;;;6.22;;
64487;SDS011;50864;45.050;39.014;2023-07-02T13:00:11;6.75;;;2.97;;
64487;SDS011;50864;45.050;39.014;2023-07-02T13:02:37;5.90;;;3.30;;
64487;SDS011;50864;45.050;39.014;2023-07-02T13:05:03;11.60;;;3.00;;
64487;SDS011;50864;45.050;39.014;2023-07-02T13:07:29;9.40;;;5.05;;
64487;SDS011;50864;45.050;39.014;2023-07-02T13:09:56;9.35;;;5.20;;
64487;SDS011;50864;45.050;39.014;2023-07-02T13:12:21;4.80;;;2.45;;
64487;SDS011;50864;45.050;39.014;2023-07-02T13:14:47;5.50;;;2.85;;
64487;SDS011;50864;45.050;39.014;2023-07-02T13:17:13;5.85;;;2.70;;
64487;SDS011;50864;45.050;39.014;2023-07-02T13:19:38;5.20;;;3.05;;
64487;SDS011;50864;45.050;39.014;2023-07-02T13:22:04;6.62;;;2.90;;
64487;SDS011;50864;45.050;39.014;2023-07-02T13:24:33;7.50;;;2.70;;
64487;SDS011;50864;45.050;39.014;2023-07-02T13:27:01;6.85;;;2.72;;
64487;SDS011;50864;45.050;39.014;2023-07-02T13:29:28;4.37;;;2.30;;
64487;SDS011;50864;45.050;39.014;2023-07-02T13:31:54;6.07;;;2.80;;
64487;SDS011;50864;45.050;39.014;2023-07-02T13:34:19;10.27;;;2.83;;
64487;SDS011;50864;45.050;39.014;2023-07-02T13:36:45;8.85;;;3.00;;
64487;SDS011;50864;45.050;39.014;2023-07-02T13:39:11;7.50;;;3.20;;
64487;SDS011;50864;45.050;39.014;2023-07-02T13:41:36;9.20;;;4.53;;
64487;SDS011;50864;45.050;39.014;2023-07-02T13:44:02;6.62;;;3.00;;
64487;SDS011;50864;45.050;39.014;2023-07-02T13:58:17;5.28;;;2.65;;
64487;SDS011;50864;45.050;39.014;2023-07-02T14:00:43;8.75;;;2.80;;
64487;SDS011;50864;45.050;39.014;2023-07-02T14:03:11;5.03;;;2.60;;
64487;SDS011;50864;45.050;39.014;2023-07-02T14:05:37;7.22;;;2.70;;
64487;SDS011;50864;45.050;39.014;2023-07-02T14:08:02;6.55;;;3.35;;
64487;SDS011;50864;45.050;39.014;2023-07-02T14:10:28;5.05;;;2.60;;
64487;SDS011;50864;45.050;39.014;2023-07-02T14:12:54;5.18;;;3.10;;
64487;SDS011;50864;45.050;39.014;2023-07-02T14:15:20;8.25;;;3.25;;
64487;SDS011;50864;45.050;39.014;2023-07-02T14:17:46;6.22;;;2.70;;
64487;SDS011;50864;45.050;39.014;2023-07-02T14:20:12;4.15;;;2.65;;
64487;SDS011;50864;45.050;39.014;2023-07-02T14:22:38;4.50;;;3.00;;
64487;SDS011;50864;45.050;39.014;2023-07-02T14:25:04;4.47;;;2.80;;
64487;SDS011;50864;45.050;39.014;2023-07-02T14:27:30;4.70;;;2.60;;
64487;SDS011;50864;45.050;39.014;2023-07-02T14:29:59;5.72;;;2.72;;
64487;SDS011;50864;45.050;39.014;2023-07-02T14:32:28;4.65;;;2.70;;
64487;SDS011;50864;45.050;39.014;2023-07-02T14:34:53;4.97;;;2.90;;
64487;SDS011;50864;45.050;39.014;2023-07-02T14:37:19;5.65;;;2.70;;
64487;SDS011;50864;45.050;39.014;2023-07-02T14:39:45;8.25;;;4.40;;
64487;SDS011;50864;45.050;39.014;2023-07-02T14:42:11;6.65;;;4.15;;
64487;SDS011;50864;45.050;39.014;2023-07-02T14:44:36;9.25;;;6.47;;
64487;SDS011;50864;45.050;39.014;2023-07-02T14:47:02;6.65;;;2.87;;
64487;SDS011;50864;45.050;39.014;2023-07-02T14:49:28;7.15;;;3.05;;
64487;SDS011;50864;45.050;39.014;2023-07-02T14:51:53;5.22;;;2.70;;